Time;durP1;ratioP1;P1;durP2;ratioP2;P2;SDS_P1;SDS_P2;PMS_P1;PMS_P2;Temp;Humidity;BMP_temperature;BMP_pressure;BME280_temperature;BME280_humidity;BME280_pressure;Samples;Min_cycle;Max_cycle;Signal;HPM_P1;HPM_P2
2021/12/09 00:00:31;;;;;;;;;;;1.40;99.90;;;;;;4968269;28;20063;-73
2021/12/09 00:03:05;;;;;;;;;;;1.40;99.90;;;;;;4968041;28;20069;-74
2021/12/09 00:05:33;;;;;;;;;;;1.50;99.90;;;;;;4968898;28;20051;-72
2021/12/09 00:08:00;;;;;;;;;;;1.50;99.90;;;;;;4968397;28;20062;-72
2021/12/09 00:10:27;;;;;;;;;;;1.50;99.90;;;;;;4968806;28;20097;-73
2021/12/09 00:12:55;;;;;;;;;;;1.50;99.90;;;;;;4967762;28;20069;-72
2021/12/09 00:15:22;;;;;;;;;;;1.50;99.90;;;;;;4968804;28;20068;-71
2021/12/09 00:17:51;;;;;;;;;;;1.50;99.90;;;;;;4967934;28;20162;-71
2021/12/09 00:20:18;;;;;;;;;;;1.50;99.90;;;;;;4967719;28;20091;-73
2021/12/09 00:22:46;;;;;;;;;;;1.50;99.90;;;;;;4968461;28;20069;-72
2021/12/09 00:25:14;;;;;;;;;;;1.50;99.90;;;;;;4969407;28;20060;-72
2021/12/09 00:27:41;;;;;;;;;;;1.50;99.90;;;;;;4968021;28;20211;-73
2021/12/09 00:30:08;;;;;;;;;;;1.50;99.90;;;;;;4968049;28;20084;-72
2021/12/09 00:32:36;;;;;;;;;;;1.60;99.90;;;;;;4968177;28;20069;-71
2021/12/09 00:35:05;;;;;;;;;;;1.70;99.90;;;;;;4968003;28;21286;-72
2021/12/09 00:37:37;;;;;;;;;;;1.60;99.90;;;;;;4968464;28;20059;-71
2021/12/09 00:40:05;;;;;;;;;;;1.60;99.90;;;;;;4968334;28;20059;-71
2021/12/09 00:42:32;;;;;;;;;;;1.80;99.90;;;;;;4968272;28;20078;-71
2021/12/09 00:44:59;;;;;;;;;;;1.90;99.90;;;;;;4967784;28;20154;-72
2021/12/09 00:47:27;;;;;;;;;;;1.90;99.90;;;;;;4967915;28;20080;-71
2021/12/09 00:49:56;;;;;;;;;;;1.90;99.90;;;;;;4967464;28;20060;-72
2021/12/09 00:52:25;;;;;;;;;;;1.90;99.90;;;;;;4967668;28;20171;-71
2021/12/09 00:54:52;;;;;;;;;;;1.80;99.90;;;;;;4967471;28;20065;-71
2021/12/09 00:57:22;;;;;;;;;;;1.80;99.90;;;;;;4966703;28;21616;-72
2021/12/09 00:59:49;;;;;;;;;;;1.80;99.90;;;;;;4967572;28;20105;-71
2021/12/09 01:02:16;;;;;;;;;;;1.70;99.90;;;;;;4968101;28;20077;-71
2021/12/09 01:04:44;;;;;;;;;;;1.70;99.90;;;;;;4967494;28;20076;-71
2021/12/09 01:07:11;;;;;;;;;;;1.60;99.90;;;;;;4967456;28;20171;-71
2021/12/09 01:09:40;;;;;;;;;;;1.60;99.90;;;;;;4967324;28;20069;-71
2021/12/09 01:12:07;;;;;;;;;;;1.70;99.90;;;;;;4966808;28;20107;-71
2021/12/09 01:14:37;;;;;;;;;;;1.80;99.90;;;;;;4967592;28;20092;-72
2021/12/09 01:17:04;;;;;;;;;;;1.80;99.90;;;;;;4966965;28;20157;-71
2021/12/09 01:19:31;;;;;;;;;;;1.80;99.90;;;;;;4966714;28;20060;-72
2021/12/09 01:21:58;;;;;;;;;;;1.90;99.90;;;;;;4966280;28;20088;-71
2021/12/09 01:24:25;;;;;;;;;;;2.10;99.90;;;;;;4966268;28;20060;-71
2021/12/09 01:26:56;;;;;;;;;;;2.20;99.90;;;;;;4966587;28;20095;-71
2021/12/09 01:29:32;;;;;;;;;;;2.20;99.90;;;;;;4966303;28;21013;-72
2021/12/09 01:32:03;;;;;;;;;;;2.20;99.90;;;;;;4966884;28;20084;-70
2021/12/09 01:34:30;;;;;;;;;;;2.30;99.90;;;;;;4966912;28;20060;-71
2021/12/09 01:36:57;;;;;;;;;;;2.40;99.90;;;;;;4966191;28;20060;-71
2021/12/09 01:39:27;;;;;;;;;;;2.30;99.90;;;;;;4966812;28;21170;-72
2021/12/09 01:41:57;;;;;;;;;;;2.30;99.90;;;;;;4966603;28;20077;-72
2021/12/09 01:44:24;;;;;;;;;;;2.40;99.90;;;;;;4966765;28;21198;-71
2021/12/09 01:46:51;;;;;;;;;;;2.40;99.90;;;;;;4966508;28;20076;-71
2021/12/09 01:49:18;;;;;;;;;;;2.30;99.90;;;;;;4963779;28;20123;-71
2021/12/09 01:51:46;;;;;;;;;;;2.40;99.90;;;;;;4973962;28;20069;-71
2021/12/09 01:54:13;;;;;;;;;;;2.40;99.90;;;;;;4985195;28;20176;-71
2021/12/09 01:56:40;;;;;;;;;;;2.50;99.90;;;;;;4985695;28;20515;-71
2021/12/09 01:59:09;;;;;;;;;;;2.40;99.90;;;;;;4985709;28;20060;-71
2021/12/09 02:01:36;;;;;;;;;;;2.40;99.90;;;;;;4985807;28;21069;-70
2021/12/09 02:04:05;;;;;;;;;;;2.30;99.90;;;;;;4985210;28;21142;-71
2021/12/09 02:06:33;;;;;;;;;;;2.20;99.90;;;;;;4986176;28;20096;-71
2021/12/09 02:09:00;;;;;;;;;;;2.00;99.90;;;;;;4986116;28;20194;-71
2021/12/09 02:11:28;;;;;;;;;;;1.90;99.90;;;;;;4986466;28;20076;-72
2021/12/09 02:13:57;;;;;;;;;;;1.90;99.90;;;;;;4985592;28;20158;-71
2021/12/09 02:16:26;;;;;;;;;;;1.90;99.90;;;;;;4985621;28;20267;-72
2021/12/09 02:18:54;;;;;;;;;;;1.80;99.90;;;;;;4986015;28;20068;-71
2021/12/09 02:21:24;;;;;;;;;;;1.70;99.90;;;;;;4986154;28;20086;-71
2021/12/09 02:23:53;;;;;;;;;;;1.70;99.90;;;;;;4985345;28;20114;-71
2021/12/09 02:26:22;;;;;;;;;;;1.60;99.90;;;;;;4985553;28;20117;-72
2021/12/09 02:28:49;;;;;;;;;;;1.60;99.90;;;;;;4986114;28;20084;-71
2021/12/09 02:31:16;;;;;;;;;;;1.50;99.90;;;;;;4985543;28;20063;-71
2021/12/09 02:33:44;;;;;;;;;;;1.60;99.90;;;;;;4983944;28;20077;-72
2021/12/09 02:36:11;;;;;;;;;;;1.60;99.90;;;;;;4985099;28;20101;-71
2021/12/09 02:38:44;;;;;;;;;;;1.70;99.90;;;;;;4986069;28;20211;-71
2021/12/09 02:41:14;;;;;;;;;;;1.80;99.90;;;;;;4989424;28;20060;-71
2021/12/09 02:43:42;;;;;;;;;;;1.90;99.90;;;;;;4989852;28;20149;-71
2021/12/09 02:46:09;;;;;;;;;;;1.90;99.90;;;;;;4989044;28;20078;-71
2021/12/09 02:48:36;;;;;;;;;;;1.90;99.90;;;;;;4988747;28;20178;-71
2021/12/09 02:51:04;;;;;;;;;;;1.90;99.90;;;;;;4989254;28;20076;-71
2021/12/09 02:53:31;;;;;;;;;;;1.90;99.90;;;;;;4989181;28;20170;-71
2021/12/09 02:56:00;;;;;;;;;;;2.00;99.90;;;;;;4988915;28;20099;-72
2021/12/09 02:58:27;;;;;;;;;;;2.00;99.90;;;;;;4988686;28;21061;-71
2021/12/09 03:00:56;;;;;;;;;;;2.20;99.90;;;;;;4988826;28;20068;-72
2021/12/09 03:03:23;;;;;;;;;;;2.30;99.90;;;;;;4988407;28;20179;-72
2021/12/09 03:05:52;;;;;;;;;;;2.30;99.90;;;;;;4989235;28;20096;-71
2021/12/09 03:08:24;;;;;;;;;;;2.30;99.90;;;;;;4988801;28;21279;-72
2021/12/09 03:10:51;;;;;;;;;;;2.30;99.90;;;;;;4988849;28;20206;-74
2021/12/09 03:13:20;;;;;;;;;;;2.30;99.90;;;;;;4988681;28;20173;-71
2021/12/09 03:15:47;;;;;;;;;;;2.20;99.90;;;;;;4987902;28;20074;-72
2021/12/09 03:18:14;;;;;;;;;;;2.10;99.90;;;;;;4988706;28;20069;-72
2021/12/09 03:20:42;;;;;;;;;;;1.90;99.90;;;;;;4989015;28;20082;-72
2021/12/09 03:23:10;;;;;;;;;;;1.90;99.90;;;;;;4988701;28;20076;-72
2021/12/09 03:25:37;;;;;;;;;;;1.80;99.90;;;;;;4988532;28;20060;-72
2021/12/09 03:28:04;;;;;;;;;;;1.70;99.90;;;;;;4988880;28;20154;-72
2021/12/09 03:30:32;;;;;;;;;;;1.70;99.90;;;;;;4988162;28;20068;-72
2021/12/09 03:32:59;;;;;;;;;;;1.60;99.90;;;;;;4988985;28;20268;-72
2021/12/09 03:35:26;;;;;;;;;;;1.50;99.90;;;;;;4988107;28;20158;-72
2021/12/09 03:37:53;;;;;;;;;;;1.50;99.90;;;;;;4988339;28;21124;-72
2021/12/09 03:40:21;;;;;;;;;;;1.40;99.90;;;;;;4988152;28;21136;-72
2021/12/09 03:42:48;;;;;;;;;;;1.40;99.90;;;;;;4988095;28;20068;-72
2021/12/09 03:45:15;;;;;;;;;;;1.40;99.90;;;;;;4987829;28;20178;-73
2021/12/09 03:47:44;;;;;;;;;;;1.30;99.90;;;;;;4987728;28;20179;-71
2021/12/09 03:50:12;;;;;;;;;;;1.40;99.90;;;;;;4988521;28;21129;-72
2021/12/09 03:52:40;;;;;;;;;;;1.50;99.90;;;;;;4986601;28;20074;-72
2021/12/09 03:55:07;;;;;;;;;;;1.60;99.90;;;;;;4988214;28;21180;-72
2021/12/09 03:57:35;;;;;;;;;;;1.60;99.90;;;;;;4987952;28;20091;-72
2021/12/09 04:00:02;;;;;;;;;;;1.60;99.90;;;;;;4987509;28;21052;-72
2021/12/09 04:02:32;;;;;;;;;;;1.60;99.90;;;;;;5007305;28;20068;-72
2021/12/09 04:05:01;;;;;;;;;;;1.60;99.90;;;;;;4988582;28;20108;-72
2021/12/09 04:07:28;;;;;;;;;;;1.70;99.90;;;;;;4987910;28;20068;-72
2021/12/09 04:09:55;;;;;;;;;;;1.70;99.90;;;;;;4987240;28;20069;-71
2021/12/09 04:12:22;;;;;;;;;;;1.70;99.90;;;;;;4988467;28;20230;-72
2021/12/09 04:14:50;;;;;;;;;;;1.60;99.90;;;;;;4988462;28;20094;-72
2021/12/09 04:17:17;;;;;;;;;;;1.60;99.90;;;;;;4987698;28;20068;-72
2021/12/09 04:19:47;;;;;;;;;;;1.50;99.90;;;;;;4987598;28;20086;-71
2021/12/09 04:22:16;;;;;;;;;;;1.50;99.90;;;;;;4987550;28;20097;-71
2021/12/09 04:24:44;;;;;;;;;;;1.50;99.90;;;;;;4987190;28;20251;-71
2021/12/09 04:27:11;;;;;;;;;;;1.30;99.90;;;;;;4987405;28;20079;-72
2021/12/09 04:29:38;;;;;;;;;;;1.20;99.90;;;;;;4987161;28;20095;-71
2021/12/09 04:32:06;;;;;;;;;;;1.10;99.90;;;;;;4986714;28;20162;-73
2021/12/09 04:34:33;;;;;;;;;;;1.00;99.90;;;;;;4982431;28;20104;-71
2021/12/09 04:37:00;;;;;;;;;;;1.00;99.90;;;;;;4980891;28;20077;-71
2021/12/09 04:39:29;;;;;;;;;;;1.00;99.90;;;;;;4989682;28;20115;-71
2021/12/09 04:41:56;;;;;;;;;;;0.90;99.90;;;;;;4989324;28;20060;-71
2021/12/09 04:44:23;;;;;;;;;;;0.90;99.90;;;;;;4989133;28;20140;-73
2021/12/09 04:46:50;;;;;;;;;;;0.90;99.90;;;;;;4989393;28;20142;-71
2021/12/09 04:49:17;;;;;;;;;;;0.80;99.90;;;;;;4989291;28;20550;-71
2021/12/09 04:51:45;;;;;;;;;;;0.80;99.90;;;;;;4989379;28;21247;-71
2021/12/09 04:54:12;;;;;;;;;;;0.70;99.90;;;;;;4988870;28;20063;-71
2021/12/09 04:56:40;;;;;;;;;;;0.60;99.90;;;;;;4988908;28;20149;-71
2021/12/09 04:59:08;;;;;;;;;;;0.60;99.90;;;;;;4988949;28;20165;-71
2021/12/09 05:01:35;;;;;;;;;;;0.60;99.90;;;;;;4988916;28;20068;-72
2021/12/09 05:04:03;;;;;;;;;;;0.50;99.90;;;;;;4988976;28;20090;-72
2021/12/09 05:06:30;;;;;;;;;;;0.40;99.90;;;;;;4988912;28;20164;-72
2021/12/09 05:09:04;;;;;;;;;;;0.30;99.90;;;;;;4988640;28;20083;-72
2021/12/09 05:11:47;;;;;;;;;;;0.30;99.90;;;;;;4988890;28;20150;-72
2021/12/09 05:14:17;;;;;;;;;;;0.20;99.90;;;;;;4989051;28;20191;-71
2021/12/09 05:16:44;;;;;;;;;;;0.20;99.90;;;;;;4988838;28;20091;-72
2021/12/09 05:19:12;;;;;;;;;;;0.20;99.90;;;;;;4988047;28;20068;-72
2021/12/09 05:21:40;;;;;;;;;;;0.30;99.90;;;;;;4974045;28;20082;-72
2021/12/09 05:24:07;;;;;;;;;;;0.30;99.90;;;;;;4970493;28;20086;-72
2021/12/09 05:26:41;;;;;;;;;;;0.30;99.90;;;;;;4961591;28;20159;-71
2021/12/09 05:29:09;;;;;;;;;;;0.30;99.90;;;;;;4975145;28;20099;-72
2021/12/09 05:34:22;;;;;;;;;;;0.20;99.90;;;;;;4972791;28;21508;-70
2021/12/09 05:36:49;;;;;;;;;;;0.30;99.90;;;;;;4970921;28;21066;-71
2021/12/09 05:39:17;;;;;;;;;;;0.30;99.90;;;;;;4959443;28;20069;-72
2021/12/09 05:41:45;;;;;;;;;;;0.30;99.90;;;;;;4976648;28;20243;-74
2021/12/09 05:44:13;;;;;;;;;;;0.40;99.90;;;;;;4980202;28;20107;-71
2021/12/09 05:46:45;;;;;;;;;;;0.50;99.90;;;;;;4988326;28;20380;-73
2021/12/09 05:49:13;;;;;;;;;;;0.50;99.90;;;;;;4988068;28;20088;-72
2021/12/09 05:51:40;;;;;;;;;;;0.50;99.90;;;;;;4988414;28;20068;-73
2021/12/09 05:54:08;;;;;;;;;;;0.50;99.90;;;;;;4987881;28;20066;-73
2021/12/09 05:56:35;;;;;;;;;;;0.60;99.90;;;;;;4987957;28;20296;-73
2021/12/09 05:59:02;;;;;;;;;;;0.70;99.90;;;;;;4988090;28;21046;-73
2021/12/09 06:01:30;;;;;;;;;;;0.70;99.90;;;;;;4965961;28;20187;-72
2021/12/09 06:04:00;;;;;;;;;;;0.60;99.90;;;;;;4966316;28;20060;-73
2021/12/09 06:06:28;;;;;;;;;;;0.70;99.90;;;;;;4965141;28;20076;-73
2021/12/09 06:08:55;;;;;;;;;;;0.70;99.90;;;;;;4948341;28;20999;-73
2021/12/09 06:11:22;;;;;;;;;;;0.60;99.90;;;;;;4948629;28;21219;-73
2021/12/09 06:13:50;;;;;;;;;;;0.50;99.90;;;;;;4950407;28;21146;-72
2021/12/09 06:16:17;;;;;;;;;;;0.50;99.90;;;;;;4957744;28;20077;-73
2021/12/09 06:18:44;;;;;;;;;;;0.50;99.90;;;;;;4980885;28;20085;-74
2021/12/09 06:21:13;;;;;;;;;;;0.50;99.90;;;;;;4971668;28;20068;-73
2021/12/09 06:23:41;;;;;;;;;;;0.50;99.90;;;;;;4969957;28;20059;-73
2021/12/09 06:26:08;;;;;;;;;;;0.60;99.90;;;;;;4969981;28;20158;-72
2021/12/09 06:28:35;;;;;;;;;;;0.70;99.90;;;;;;4969570;28;20082;-73
2021/12/09 06:31:02;;;;;;;;;;;0.70;99.90;;;;;;4970090;28;20069;-73
2021/12/09 06:33:30;;;;;;;;;;;0.80;99.90;;;;;;4970236;28;20163;-73
2021/12/09 06:35:57;;;;;;;;;;;1.00;99.90;;;;;;4970101;28;21185;-72
2021/12/09 06:38:26;;;;;;;;;;;1.00;99.90;;;;;;4969427;28;20150;-74
2021/12/09 06:40:53;;;;;;;;;;;1.20;99.90;;;;;;4971854;28;20210;-73
2021/12/09 06:43:22;;;;;;;;;;;1.20;99.90;;;;;;4969717;28;20061;-73
2021/12/09 06:45:49;;;;;;;;;;;1.40;99.90;;;;;;4973858;28;21108;-73
2021/12/09 06:48:17;;;;;;;;;;;1.60;99.90;;;;;;4975136;28;20069;-74
2021/12/09 06:50:44;;;;;;;;;;;1.70;99.90;;;;;;4977537;28;20159;-72
2021/12/09 06:53:13;;;;;;;;;;;1.80;99.90;;;;;;4969477;28;20089;-72
2021/12/09 06:55:41;;;;;;;;;;;1.90;99.90;;;;;;4969298;28;20088;-72
2021/12/09 06:58:08;;;;;;;;;;;1.90;99.90;;;;;;4969282;28;20080;-72
2021/12/09 07:00:40;;;;;;;;;;;1.90;99.90;;;;;;4970198;28;21165;-72
2021/12/09 07:03:07;;;;;;;;;;;1.90;99.90;;;;;;4969110;28;20069;-73
2021/12/09 07:05:36;;;;;;;;;;;1.90;99.90;;;;;;4969200;28;20082;-71
2021/12/09 07:08:03;;;;;;;;;;;1.90;99.90;;;;;;4969759;28;20068;-72
2021/12/09 07:10:31;;;;;;;;;;;1.80;99.90;;;;;;4968542;28;20167;-72
2021/12/09 07:13:00;;;;;;;;;;;1.80;99.90;;;;;;4970757;28;20060;-73
2021/12/09 07:15:27;;;;;;;;;;;1.90;99.90;;;;;;4966656;28;20085;-72
2021/12/09 07:17:54;;;;;;;;;;;1.90;99.90;;;;;;4985185;28;21309;-73
2021/12/09 07:20:23;;;;;;;;;;;1.90;99.90;;;;;;4969111;28;20084;-72
2021/12/09 07:22:50;;;;;;;;;;;1.90;99.90;;;;;;4972992;28;20093;-73
2021/12/09 07:25:17;;;;;;;;;;;2.00;99.90;;;;;;4972841;28;21118;-73
2021/12/09 07:27:44;;;;;;;;;;;2.00;99.90;;;;;;4969927;28;20175;-73
2021/12/09 07:30:14;;;;;;;;;;;2.30;99.90;;;;;;4977217;28;20076;-71
2021/12/09 07:32:41;;;;;;;;;;;2.30;99.90;;;;;;4969155;28;21256;-73
2021/12/09 07:35:09;;;;;;;;;;;2.30;99.90;;;;;;4970769;28;20162;-71
2021/12/09 07:37:37;;;;;;;;;;;2.30;99.90;;;;;;4976207;28;20082;-73
2021/12/09 07:40:04;;;;;;;;;;;2.30;99.90;;;;;;4987207;28;20067;-73
2021/12/09 07:42:32;;;;;;;;;;;2.30;99.90;;;;;;4988730;28;20097;-72
2021/12/09 07:44:59;;;;;;;;;;;2.20;99.90;;;;;;4976878;28;21164;-73
2021/12/09 07:47:27;;;;;;;;;;;2.10;99.90;;;;;;4960272;28;20063;-74
2021/12/09 07:49:55;;;;;;;;;;;2.10;99.90;;;;;;4975234;28;20170;-71
2021/12/09 07:52:22;;;;;;;;;;;2.10;99.90;;;;;;4977496;28;20075;-72
2021/12/09 07:54:49;;;;;;;;;;;2.20;99.90;;;;;;4978562;28;20141;-72
2021/12/09 07:57:16;;;;;;;;;;;2.20;99.90;;;;;;4977787;28;20103;-71
2021/12/09 07:59:43;;;;;;;;;;;2.30;99.90;;;;;;4976460;28;20068;-72
2021/12/09 08:02:11;;;;;;;;;;;2.30;99.90;;;;;;4974513;28;20084;-72
2021/12/09 08:04:40;;;;;;;;;;;2.30;99.90;;;;;;4972440;28;20061;-72
2021/12/09 08:07:07;;;;;;;;;;;2.30;99.90;;;;;;4968506;28;20131;-72
2021/12/09 08:09:34;;;;;;;;;;;2.30;99.90;;;;;;4963906;28;20077;-72
2021/12/09 08:12:01;;;;;;;;;;;2.30;99.90;;;;;;4977875;28;20076;-72
2021/12/09 08:14:29;;;;;;;;;;;2.40;99.90;;;;;;4970083;28;20170;-72
2021/12/09 08:17:10;;;;;;;;;;;2.40;99.90;;;;;;4970627;28;20086;-73
2021/12/09 08:19:37;;;;;;;;;;;2.50;99.90;;;;;;4971369;28;20226;-72
2021/12/09 08:22:06;;;;;;;;;;;2.50;99.90;;;;;;4970723;28;20176;-72
2021/12/09 08:24:33;;;;;;;;;;;2.60;99.90;;;;;;4971910;28;20069;-72
2021/12/09 08:27:00;;;;;;;;;;;2.60;99.90;;;;;;4975262;28;20094;-73
2021/12/09 08:29:28;;;;;;;;;;;2.70;99.90;;;;;;4967348;28;20088;-72
2021/12/09 08:31:55;;;;;;;;;;;2.80;99.90;;;;;;4967831;28;20520;-72
2021/12/09 08:34:22;;;;;;;;;;;3.00;99.90;;;;;;4967332;28;20105;-72
2021/12/09 08:36:49;;;;;;;;;;;3.00;99.90;;;;;;4953410;28;20149;-72
2021/12/09 08:39:18;;;;;;;;;;;3.10;99.90;;;;;;4978207;28;20170;-71
2021/12/09 08:41:46;;;;;;;;;;;3.10;99.90;;;;;;4969551;28;20086;-74
2021/12/09 08:44:13;;;;;;;;;;;3.20;99.90;;;;;;4969418;28;20295;-71
2021/12/09 08:46:41;;;;;;;;;;;3.20;99.90;;;;;;4968804;28;20061;-72
2021/12/09 08:49:08;;;;;;;;;;;3.30;99.90;;;;;;4969095;28;20061;-72
2021/12/09 08:51:37;;;;;;;;;;;3.40;99.90;;;;;;4969470;28;20077;-72
2021/12/09 08:54:05;;;;;;;;;;;3.40;99.90;;;;;;4969506;28;20111;-71
2021/12/09 08:56:34;;;;;;;;;;;3.50;99.90;;;;;;4969268;28;21184;-72
2021/12/09 08:59:02;;;;;;;;;;;3.50;99.90;;;;;;4967900;28;21631;-72
2021/12/09 09:01:30;;;;;;;;;;;3.60;99.90;;;;;;4967216;28;20077;-72
2021/12/09 09:03:57;;;;;;;;;;;3.60;99.90;;;;;;4988705;28;20161;-72
2021/12/09 09:06:24;;;;;;;;;;;3.70;99.90;;;;;;4988127;28;20076;-72
2021/12/09 09:08:56;;;;;;;;;;;3.70;99.90;;;;;;4988507;28;21084;-72
2021/12/09 09:11:23;;;;;;;;;;;3.70;99.90;;;;;;4989123;28;20174;-72
2021/12/09 09:13:52;;;;;;;;;;;3.80;99.90;;;;;;4986843;28;21094;-72
2021/12/09 09:16:19;;;;;;;;;;;3.80;99.90;;;;;;4985355;28;20166;-70
2021/12/09 09:18:46;;;;;;;;;;;3.90;99.90;;;;;;4975040;28;20170;-72
2021/12/09 09:21:14;;;;;;;;;;;3.90;99.90;;;;;;4966011;28;20268;-72
2021/12/09 09:23:41;;;;;;;;;;;4.00;99.90;;;;;;4964218;28;20085;-72
2021/12/09 09:26:08;;;;;;;;;;;4.10;99.90;;;;;;4964818;28;20078;-72
2021/12/09 09:28:35;;;;;;;;;;;4.10;99.90;;;;;;4963541;28;21173;-72
2021/12/09 09:31:05;;;;;;;;;;;4.20;99.90;;;;;;4964417;28;20092;-72
2021/12/09 09:33:32;;;;;;;;;;;4.30;99.90;;;;;;4973264;28;20286;-72
2021/12/09 09:36:00;;;;;;;;;;;4.40;99.90;;;;;;4967292;28;21082;-73
2021/12/09 09:38:27;;;;;;;;;;;4.50;99.90;;;;;;4965759;28;20060;-72
2021/12/09 09:41:03;;;;;;;;;;;4.70;99.90;;;;;;4967562;28;20074;-72
2021/12/09 09:43:42;;;;;;;;;;;4.90;99.90;;;;;;4966345;28;21165;-73
2021/12/09 09:46:12;;;;;;;;;;;5.10;99.90;;;;;;4967010;28;20214;-72
2021/12/09 09:48:41;;;;;;;;;;;5.30;99.90;;;;;;4964127;28;20223;-72
2021/12/09 09:51:09;;;;;;;;;;;5.30;99.90;;;;;;4969920;28;20069;-73
2021/12/09 09:53:38;;;;;;;;;;;5.30;99.90;;;;;;4973373;28;20313;-72
2021/12/09 09:56:13;;;;;;;;;;;5.20;99.90;;;;;;4977118;28;20069;-73
2021/12/09 09:58:40;;;;;;;;;;;5.20;99.90;;;;;;4970401;28;20093;-72
2021/12/09 10:01:07;;;;;;;;;;;5.30;99.90;;;;;;4970907;28;20240;-72
2021/12/09 10:03:41;;;;;;;;;;;5.30;99.90;;;;;;4970135;28;20135;-72
2021/12/09 10:06:08;;;;;;;;;;;5.20;99.90;;;;;;4969699;28;20069;-71
2021/12/09 10:08:36;;;;;;;;;;;5.10;99.90;;;;;;4969376;28;20191;-72
2021/12/09 10:11:03;;;;;;;;;;;5.10;99.90;;;;;;4970691;28;20099;-72
2021/12/09 10:13:31;;;;;;;;;;;5.20;99.90;;;;;;4970218;28;21252;-73
2021/12/09 10:15:58;;;;;;;;;;;5.40;99.90;;;;;;4967692;28;20075;-73
2021/12/09 10:18:34;;;;;;;;;;;5.60;99.90;;;;;;4985084;28;20077;-74
2021/12/09 10:21:06;;;;;;;;;;;5.60;99.90;;;;;;4989070;28;20081;-73
2021/12/09 10:23:35;;;;;;;;;;;5.60;99.90;;;;;;4990333;28;20082;-73
2021/12/09 10:26:19;;;;;;;;;;;5.60;99.90;;;;;;4989470;28;20069;-71
2021/12/09 10:28:50;;;;;;;;;;;5.50;99.90;;;;;;4975993;28;20195;-72
2021/12/09 10:31:19;;;;;;;;;;;5.50;99.90;;;;;;4985241;28;20277;-73
2021/12/09 10:34:02;;;;;;;;;;;5.40;99.90;;;;;;4989463;28;21089;-72
2021/12/09 10:36:41;;;;;;;;;;;5.40;99.90;;;;;;4979994;28;20170;-73
2021/12/09 10:39:15;;;;;;;;;;;5.40;99.90;;;;;;4970821;28;20060;-73
2021/12/09 10:41:42;;;;;;;;;;;5.30;99.90;;;;;;4970305;28;20141;-72
2021/12/09 10:44:09;;;;;;;;;;;5.30;99.90;;;;;;4969382;28;21199;-72
2021/12/09 10:46:48;;;;;;;;;;;5.30;99.90;;;;;;4969851;28;21128;-72
2021/12/09 10:49:17;;;;;;;;;;;5.50;99.90;;;;;;4970538;28;20270;-73
2021/12/09 10:51:56;;;;;;;;;;;5.60;99.90;;;;;;4970591;28;20063;-73
2021/12/09 10:54:30;;;;;;;;;;;5.70;99.90;;;;;;4971457;28;21271;-71
2021/12/09 10:56:57;;;;;;;;;;;5.70;99.90;;;;;;4968911;28;20051;-71
2021/12/09 10:59:29;;;;;;;;;;;5.70;99.90;;;;;;4969414;28;21140;-72
2021/12/09 11:02:06;;;;;;;;;;;5.80;99.90;;;;;;4969400;28;20150;-71
2021/12/09 11:04:33;;;;;;;;;;;5.80;99.90;;;;;;4969617;28;20104;-71
2021/12/09 11:07:19;;;;;;;;;;;5.90;99.90;;;;;;4969027;28;20059;-71
2021/12/09 11:09:46;;;;;;;;;;;5.80;99.90;;;;;;4969997;28;20060;-71
2021/12/09 11:12:26;;;;;;;;;;;5.80;99.90;;;;;;4970473;28;20095;-71
2021/12/09 11:15:00;;;;;;;;;;;5.80;99.90;;;;;;4972539;28;20219;-71
2021/12/09 11:17:33;;;;;;;;;;;5.70;99.90;;;;;;4968134;28;20163;-70
2021/12/09 11:20:03;;;;;;;;;;;5.70;99.90;;;;;;4979825;28;20069;-71
2021/12/09 11:22:34;;;;;;;;;;;5.60;99.90;;;;;;4969991;28;20105;-71
2021/12/09 11:25:04;;;;;;;;;;;5.50;99.90;;;;;;4978387;28;21112;-72
2021/12/09 11:27:31;;;;;;;;;;;5.50;99.90;;;;;;4989895;28;20058;-71
2021/12/09 11:30:08;;;;;;;;;;;5.50;99.90;;;;;;4990700;28;20140;-71
2021/12/09 11:32:41;;;;;;;;;;;5.50;99.90;;;;;;4990816;28;20252;-72
2021/12/09 11:35:14;;;;;;;;;;;5.40;99.90;;;;;;4991096;28;20060;-72
2021/12/09 11:37:47;;;;;;;;;;;5.50;99.90;;;;;;4990015;28;20086;-72
2021/12/09 11:40:19;;;;;;;;;;;5.50;99.90;;;;;;4990956;28;20059;-71
2021/12/09 11:42:50;;;;;;;;;;;5.50;99.90;;;;;;4990881;28;20060;-71
2021/12/09 11:45:18;;;;;;;;;;;5.50;99.90;;;;;;4991099;28;20273;-71
2021/12/09 11:47:46;;;;;;;;;;;5.50;99.90;;;;;;4989457;28;20153;-71
2021/12/09 11:50:15;;;;;;;;;;;5.40;99.90;;;;;;4973471;28;20084;-71
2021/12/09 11:52:45;;;;;;;;;;;5.50;99.90;;;;;;4970165;28;21239;-71
2021/12/09 11:55:14;;;;;;;;;;;5.50;99.90;;;;;;4968170;28;20272;-71
2021/12/09 11:57:44;;;;;;;;;;;5.50;99.90;;;;;;4969930;28;20051;-71
2021/12/09 12:11:56;;;;;;;;;;;5.50;99.90;;;;;;4961232;28;20077;-72
2021/12/09 12:14:39;;;;;;;;;;;5.30;99.90;;;;;;4960765;28;20069;-71
2021/12/09 12:17:20;;;;;;;;;;;5.30;99.90;;;;;;4967200;28;20095;-73
2021/12/09 12:20:03;;;;;;;;;;;5.20;99.90;;;;;;4974177;28;20125;-71
2021/12/09 12:22:49;;;;;;;;;;;5.20;99.90;;;;;;4964871;28;20069;-74
2021/12/09 12:25:43;;;;;;;;;;;5.10;99.90;;;;;;4967588;28;20188;-71
2021/12/09 12:28:28;;;;;;;;;;;5.00;99.90;;;;;;4967959;28;20075;-72
2021/12/09 12:31:16;;;;;;;;;;;4.90;99.90;;;;;;4968515;28;20163;-72
2021/12/09 12:33:56;;;;;;;;;;;4.90;99.90;;;;;;4971471;28;20058;-71
2021/12/09 12:37:02;;;;;;;;;;;4.80;99.90;;;;;;4971680;28;20101;-71
2021/12/09 12:39:35;;;;;;;;;;;4.80;99.90;;;;;;4984952;28;21166;-71
2021/12/09 12:42:07;;;;;;;;;;;4.80;99.90;;;;;;4969403;28;20067;-70
2021/12/09 12:44:36;;;;;;;;;;;4.70;99.90;;;;;;4969867;28;21057;-71
2021/12/09 12:47:12;;;;;;;;;;;4.70;99.90;;;;;;4964832;28;20820;-70
2021/12/09 12:49:45;;;;;;;;;;;4.70;99.90;;;;;;4969606;28;20084;-71
2021/12/09 12:52:27;;;;;;;;;;;4.70;99.90;;;;;;4969667;28;20052;-70
2021/12/09 12:55:11;;;;;;;;;;;4.70;99.90;;;;;;4972976;28;20082;-71
2021/12/09 12:57:41;;;;;;;;;;;4.60;99.90;;;;;;4986504;28;20153;-71
2021/12/09 13:00:14;;;;;;;;;;;4.60;99.90;;;;;;4986904;28;20077;-70
2021/12/09 13:05:56;;;;;;;;;;;4.60;99.90;;;;;;4987476;28;20047;-71
2021/12/09 13:11:38;;;;;;;;;;;4.60;99.90;;;;;;4970058;28;21138;-71
2021/12/09 13:14:11;;;;;;;;;;;4.60;99.90;;;;;;4964865;28;20058;-71
2021/12/09 13:16:59;;;;;;;;;;;4.60;99.90;;;;;;4967414;28;20142;-71
2021/12/09 13:19:34;;;;;;;;;;;4.60;99.90;;;;;;4967112;28;20065;-71
2021/12/09 13:22:02;;;;;;;;;;;4.70;99.90;;;;;;4968912;28;20067;-71
2021/12/09 13:24:36;;;;;;;;;;;4.70;99.90;;;;;;4968214;28;21176;-71
2021/12/09 13:27:12;;;;;;;;;;;4.70;99.90;;;;;;4967759;28;20061;-71
2021/12/09 13:29:48;;;;;;;;;;;4.80;99.90;;;;;;4973856;28;20059;-70
2021/12/09 13:32:43;;;;;;;;;;;4.80;99.90;;;;;;4964510;28;20084;-70
2021/12/09 13:35:16;;;;;;;;;;;4.90;99.90;;;;;;4968982;28;20068;-71
2021/12/09 13:38:05;;;;;;;;;;;4.90;99.90;;;;;;4968041;28;20067;-70
2021/12/09 13:45:47;;;;;;;;;;;5.00;99.90;;;;;;4972987;28;20202;-71
2021/12/09 13:46:23;;;;;;;;;;;5.10;99.90;;;;;;4965882;28;20048;-71
2021/12/09 13:49:01;;;;;;;;;;;5.10;99.90;;;;;;4966549;28;21230;-72
2021/12/09 13:51:54;;;;;;;;;;;5.10;99.90;;;;;;4966931;28;20087;-72
2021/12/09 13:54:24;;;;;;;;;;;5.10;99.90;;;;;;4967200;28;20060;-77
2021/12/09 13:56:55;;;;;;;;;;;5.10;99.90;;;;;;4965392;28;20273;-71
2021/12/09 13:59:24;;;;;;;;;;;5.00;99.90;;;;;;4971603;28;20203;-71
2021/12/09 14:01:52;;;;;;;;;;;5.00;99.90;;;;;;4986304;28;20342;-71
2021/12/09 14:04:21;;;;;;;;;;;5.00;99.90;;;;;;4985732;28;21218;-71
2021/12/09 14:06:58;;;;;;;;;;;5.00;99.90;;;;;;4967446;28;20069;-71
2021/12/09 14:09:27;;;;;;;;;;;4.90;99.90;;;;;;4972153;28;20069;-71
2021/12/09 14:11:54;;;;;;;;;;;4.90;99.90;;;;;;4977392;28;20160;-70
2021/12/09 14:14:25;;;;;;;;;;;4.90;99.90;;;;;;4986213;28;20097;-72
2021/12/09 14:16:56;;;;;;;;;;;4.90;99.90;;;;;;4986056;28;20145;-71
2021/12/09 14:22:14;;;;;;;;;;;4.80;99.90;;;;;;4986402;28;20047;-72
2021/12/09 14:24:43;;;;;;;;;;;4.80;99.90;;;;;;4986240;28;20254;-71
2021/12/09 14:27:12;;;;;;;;;;;4.80;99.90;;;;;;4985262;28;20051;-70
2021/12/09 14:29:39;;;;;;;;;;;4.80;99.90;;;;;;4985073;28;21226;-72
2021/12/09 14:32:08;;;;;;;;;;;4.80;99.90;;;;;;4986634;28;20051;-71
2021/12/09 14:34:41;;;;;;;;;;;4.80;99.90;;;;;;4986723;28;21028;-72
2021/12/09 14:37:10;;;;;;;;;;;4.80;99.90;;;;;;4976294;28;21139;-72
2021/12/09 14:39:39;;;;;;;;;;;4.80;99.90;;;;;;4970396;28;20076;-73
2021/12/09 14:42:09;;;;;;;;;;;4.80;99.90;;;;;;4981373;28;20064;-72
2021/12/09 14:44:36;;;;;;;;;;;4.80;99.90;;;;;;4989756;28;21210;-72
2021/12/09 14:47:08;;;;;;;;;;;4.80;99.90;;;;;;4982370;28;20088;-72
2021/12/09 14:49:42;;;;;;;;;;;4.80;99.90;;;;;;4977131;28;20148;-72
2021/12/09 14:52:09;;;;;;;;;;;4.80;99.90;;;;;;4987906;28;20051;-72
2021/12/09 14:54:36;;;;;;;;;;;4.80;99.90;;;;;;4989799;28;20076;-72
2021/12/09 14:57:06;;;;;;;;;;;4.80;99.90;;;;;;4987122;28;20162;-71
2021/12/09 14:59:35;;;;;;;;;;;4.80;99.90;;;;;;4989324;28;20059;-72
2021/12/09 15:02:08;;;;;;;;;;;4.80;99.90;;;;;;4989598;28;20060;-72
2021/12/09 15:04:39;;;;;;;;;;;4.80;99.90;;;;;;4989056;28;20060;-72
2021/12/09 15:07:07;;;;;;;;;;;4.70;99.90;;;;;;4988961;28;20067;-72
2021/12/09 15:09:35;;;;;;;;;;;4.70;99.90;;;;;;4988981;28;20060;-72
2021/12/09 15:12:03;;;;;;;;;;;4.70;99.90;;;;;;4974420;28;20061;-72